sensor_id;sensor_type;location;lat;lon;timestamp;temperature;humidity
35043;DHT22;21230;51.170;17.024;2023-04-24T00:00:28;12.80;99.90
35043;DHT22;21230;51.170;17.024;2023-04-24T00:02:54;12.80;99.90
35043;DHT22;21230;51.170;17.024;2023-04-24T00:05:22;12.80;99.90
35043;DHT22;21230;51.170;17.024;2023-04-24T00:07:48;12.80;99.90
35043;DHT22;21230;51.170;17.024;2023-04-24T00:10:18;12.80;99.90
35043;DHT22;21230;51.170;17.024;2023-04-24T00:12:44;12.80;99.90
35043;DHT22;21230;51.170;17.024;2023-04-24T00:15:10;12.80;99.90
35043;DHT22;21230;51.170;17.024;2023-04-24T00:17:36;12.80;99.90
35043;DHT22;21230;51.170;17.024;2023-04-24T00:20:03;12.80;99.90
35043;DHT22;21230;51.170;17.024;2023-04-24T00:22:31;12.80;99.90
35043;DHT22;21230;51.170;17.024;2023-04-24T00:24:57;12.80;99.90
35043;DHT22;21230;51.170;17.024;2023-04-24T00:27:23;12.80;99.90
35043;DHT22;21230;51.170;17.024;2023-04-24T00:29:49;12.80;99.90
35043;DHT22;21230;51.170;17.024;2023-04-24T00:32:15;12.80;99.90
35043;DHT22;21230;51.170;17.024;2023-04-24T00:34:41;12.70;99.90
35043;DHT22;21230;51.170;17.024;2023-04-24T00:37:07;12.70;99.90
35043;DHT22;21230;51.170;17.024;2023-04-24T00:39:33;12.70;99.90
35043;DHT22;21230;51.170;17.024;2023-04-24T00:41:59;12.70;99.90
35043;DHT22;21230;51.170;17.024;2023-04-24T00:44:27;12.70;99.90
35043;DHT22;21230;51.170;17.024;2023-04-24T00:46:53;12.60;99.90
35043;DHT22;21230;51.170;17.024;2023-04-24T00:49:21;12.60;99.90
35043;DHT22;21230;51.170;17.024;2023-04-24T00:51:47;12.60;99.90
35043;DHT22;21230;51.170;17.024;2023-04-24T00:54:15;12.60;99.90
35043;DHT22;21230;51.170;17.024;2023-04-24T00:56:42;12.60;99.90
35043;DHT22;21230;51.170;17.024;2023-04-24T00:59:09;12.60;99.90
35043;DHT22;21230;51.170;17.024;2023-04-24T01:01:36;12.60;99.90
35043;DHT22;21230;51.170;17.024;2023-04-24T01:04:02;12.60;99.90
35043;DHT22;21230;51.170;17.024;2023-04-24T01:06:29;12.60;99.90
35043;DHT22;21230;51.170;17.024;2023-04-24T01:08:58;12.60;99.90
35043;DHT22;21230;51.170;17.024;2023-04-24T01:11:25;12.60;99.90
35043;DHT22;21230;51.170;17.024;2023-04-24T01:13:52;12.60;99.90
35043;DHT22;21230;51.170;17.024;2023-04-24T01:16:18;12.50;99.90
35043;DHT22;21230;51.170;17.024;2023-04-24T01:18:46;12.50;99.90
35043;DHT22;21230;51.170;17.024;2023-04-24T01:21:14;12.50;99.90
35043;DHT22;21230;51.170;17.024;2023-04-24T01:23:43;12.50;99.90
35043;DHT22;21230;51.170;17.024;2023-04-24T01:26:09;12.50;99.90
35043;DHT22;21230;51.170;17.024;2023-04-24T01:28:35;12.50;99.90
35043;DHT22;21230;51.170;17.024;2023-04-24T01:31:01;12.40;99.90
35043;DHT22;21230;51.170;17.024;2023-04-24T01:33:27;12.50;99.90
35043;DHT22;21230;51.170;17.024;2023-04-24T01:35:52;12.50;99.90
35043;DHT22;21230;51.170;17.024;2023-04-24T01:38:19;12.40;99.90
35043;DHT22;21230;51.170;17.024;2023-04-24T01:40:45;12.50;99.90
35043;DHT22;21230;51.170;17.024;2023-04-24T01:43:12;12.50;99.90
35043;DHT22;21230;51.170;17.024;2023-04-24T01:45:38;12.50;99.90
35043;DHT22;21230;51.170;17.024;2023-04-24T01:48:04;12.50;99.90
35043;DHT22;21230;51.170;17.024;2023-04-24T01:50:30;12.50;99.90
35043;DHT22;21230;51.170;17.024;2023-04-24T01:52:56;12.50;99.90
35043;DHT22;21230;51.170;17.024;2023-04-24T01:55:22;12.50;99.90
35043;DHT22;21230;51.170;17.024;2023-04-24T01:57:52;12.50;99.90
35043;DHT22;21230;51.170;17.024;2023-04-24T02:00:19;12.50;99.90
35043;DHT22;21230;51.170;17.024;2023-04-24T02:02:45;12.50;99.90
35043;DHT22;21230;51.170;17.024;2023-04-24T02:05:11;12.60;99.90
35043;DHT22;21230;51.170;17.024;2023-04-24T02:07:37;12.50;99.90
35043;DHT22;21230;51.170;17.024;2023-04-24T02:10:03;12.60;99.90
35043;DHT22;21230;51.170;17.024;2023-04-24T02:12:30;12.60;99.90
35043;DHT22;21230;51.170;17.024;2023-04-24T02:14:56;12.50;99.90
35043;DHT22;21230;51.170;17.024;2023-04-24T02:17:22;12.60;99.90
35043;DHT22;21230;51.170;17.024;2023-04-24T02:19:48;12.50;99.90
35043;DHT22;21230;51.170;17.024;2023-04-24T02:22:14;12.60;99.90
35043;DHT22;21230;51.170;17.024;2023-04-24T02:24:40;12.50;99.90
35043;DHT22;21230;51.170;17.024;2023-04-24T02:27:05;12.50;99.90
35043;DHT22;21230;51.170;17.024;2023-04-24T02:29:32;12.50;99.90
35043;DHT22;21230;51.170;17.024;2023-04-24T02:31:58;12.50;99.90
35043;DHT22;21230;51.170;17.024;2023-04-24T02:34:23;12.50;99.90
35043;DHT22;21230;51.170;17.024;2023-04-24T02:36:50;12.50;99.90
35043;DHT22;21230;51.170;17.024;2023-04-24T02:39:16;12.40;99.90
35043;DHT22;21230;51.170;17.024;2023-04-24T02:41:42;12.40;99.90
35043;DHT22;21230;51.170;17.024;2023-04-24T02:44:08;12.40;99.90
35043;DHT22;21230;51.170;17.024;2023-04-24T02:46:35;12.40;99.90
35043;DHT22;21230;51.170;17.024;2023-04-24T02:49:01;12.40;99.90
35043;DHT22;21230;51.170;17.024;2023-04-24T02:51:26;12.40;99.90
35043;DHT22;21230;51.170;17.024;2023-04-24T02:53:52;12.40;99.90
35043;DHT22;21230;51.170;17.024;2023-04-24T02:56:18;12.40;99.90
35043;DHT22;21230;51.170;17.024;2023-04-24T02:58:44;12.40;99.90
35043;DHT22;21230;51.170;17.024;2023-04-24T03:01:11;12.40;99.90
35043;DHT22;21230;51.170;17.024;2023-04-24T03:03:38;12.40;99.90
35043;DHT22;21230;51.170;17.024;2023-04-24T03:06:05;12.40;99.90
35043;DHT22;21230;51.170;17.024;2023-04-24T03:08:34;12.40;99.90
35043;DHT22;21230;51.170;17.024;2023-04-24T03:11:00;12.40;99.90
35043;DHT22;21230;51.170;17.024;2023-04-24T03:13:26;12.40;99.90
35043;DHT22;21230;51.170;17.024;2023-04-24T03:15:52;12.40;99.90
35043;DHT22;21230;51.170;17.024;2023-04-24T03:18:18;12.40;99.90
35043;DHT22;21230;51.170;17.024;2023-04-24T03:20:51;12.30;99.90
35043;DHT22;21230;51.170;17.024;2023-04-24T03:23:37;12.40;99.90
35043;DHT22;21230;51.170;17.024;2023-04-24T03:26:05;12.40;99.90
35043;DHT22;21230;51.170;17.024;2023-04-24T03:28:31;12.40;99.90
35043;DHT22;21230;51.170;17.024;2023-04-24T03:30:57;12.40;99.90
35043;DHT22;21230;51.170;17.024;2023-04-24T03:33:26;12.40;99.90
35043;DHT22;21230;51.170;17.024;2023-04-24T03:35:52;12.40;99.90
35043;DHT22;21230;51.170;17.024;2023-04-24T03:38:18;12.40;99.90
35043;DHT22;21230;51.170;17.024;2023-04-24T03:40:44;12.40;99.90
35043;DHT22;21230;51.170;17.024;2023-04-24T03:43:10;12.40;99.90
35043;DHT22;21230;51.170;17.024;2023-04-24T03:45:35;12.40;99.90
35043;DHT22;21230;51.170;17.024;2023-04-24T03:48:01;12.40;99.90
35043;DHT22;21230;51.170;17.024;2023-04-24T03:50:27;12.30;99.90
35043;DHT22;21230;51.170;17.024;2023-04-24T03:52:54;12.30;99.90
35043;DHT22;21230;51.170;17.024;2023-04-24T03:55:23;12.20;99.90
35043;DHT22;21230;51.170;17.024;2023-04-24T03:57:57;12.20;99.90
35043;DHT22;21230;51.170;17.024;2023-04-24T04:00:23;12.20;99.90
35043;DHT22;21230;51.170;17.024;2023-04-24T04:02:48;12.20;99.90
35043;DHT22;21230;51.170;17.024;2023-04-24T04:05:17;12.20;99.90
35043;DHT22;21230;51.170;17.024;2023-04-24T04:07:43;12.20;99.90
35043;DHT22;21230;51.170;17.024;2023-04-24T04:10:12;12.20;99.90
35043;DHT22;21230;51.170;17.024;2023-04-24T04:12:37;12.20;99.90
35043;DHT22;21230;51.170;17.024;2023-04-24T04:15:05;12.20;99.90
35043;DHT22;21230;51.170;17.024;2023-04-24T04:17:32;12.20;99.90
35043;DHT22;21230;51.170;17.024;2023-04-24T04:19:58;12.20;99.90
35043;DHT22;21230;51.170;17.024;2023-04-24T04:22:24;12.20;99.90
35043;DHT22;21230;51.170;17.024;2023-04-24T04:24:50;12.20;99.90
35043;DHT22;21230;51.170;17.024;2023-04-24T04:27:16;12.20;99.90
35043;DHT22;21230;51.170;17.024;2023-04-24T04:29:44;12.20;99.90
35043;DHT22;21230;51.170;17.024;2023-04-24T04:32:10;12.20;99.90
35043;DHT22;21230;51.170;17.024;2023-04-24T04:34:41;12.20;99.90
35043;DHT22;21230;51.170;17.024;2023-04-24T04:37:08;12.20;99.90
35043;DHT22;21230;51.170;17.024;2023-04-24T04:39:36;12.10;99.90
35043;DHT22;21230;51.170;17.024;2023-04-24T04:42:02;12.10;99.90
35043;DHT22;21230;51.170;17.024;2023-04-24T04:44:27;12.20;99.90
35043;DHT22;21230;51.170;17.024;2023-04-24T04:46:54;12.20;99.90
35043;DHT22;21230;51.170;17.024;2023-04-24T04:49:25;12.20;99.90
35043;DHT22;21230;51.170;17.024;2023-04-24T04:51:54;12.30;99.90
35043;DHT22;21230;51.170;17.024;2023-04-24T04:54:19;12.40;99.90
35043;DHT22;21230;51.170;17.024;2023-04-24T04:56:45;12.50;99.90
35043;DHT22;21230;51.170;17.024;2023-04-24T04:59:11;12.60;99.90
35043;DHT22;21230;51.170;17.024;2023-04-24T05:01:38;12.70;99.90
35043;DHT22;21230;51.170;17.024;2023-04-24T05:04:06;12.80;99.90
35043;DHT22;21230;51.170;17.024;2023-04-24T05:06:32;12.80;99.90
35043;DHT22;21230;51.170;17.024;2023-04-24T05:08:58;12.80;99.90
35043;DHT22;21230;51.170;17.024;2023-04-24T05:11:24;12.90;99.90
35043;DHT22;21230;51.170;17.024;2023-04-24T05:13:50;12.90;99.90
35043;DHT22;21230;51.170;17.024;2023-04-24T05:16:15;13.00;99.90
35043;DHT22;21230;51.170;17.024;2023-04-24T05:18:41;13.00;99.90
35043;DHT22;21230;51.170;17.024;2023-04-24T05:21:07;13.10;99.90
35043;DHT22;21230;51.170;17.024;2023-04-24T05:23:33;13.20;99.90
35043;DHT22;21230;51.170;17.024;2023-04-24T05:25:58;13.30;99.90
35043;DHT22;21230;51.170;17.024;2023-04-24T05:28:24;13.40;99.90
35043;DHT22;21230;51.170;17.024;2023-04-24T05:30:54;13.40;99.90
35043;DHT22;21230;51.170;17.024;2023-04-24T05:33:21;13.50;99.90
35043;DHT22;21230;51.170;17.024;2023-04-24T05:35:48;13.50;99.90
35043;DHT22;21230;51.170;17.024;2023-04-24T05:38:14;13.60;99.90
35043;DHT22;21230;51.170;17.024;2023-04-24T05:40:43;13.60;99.90
35043;DHT22;21230;51.170;17.024;2023-04-24T05:43:09;13.70;99.90
35043;DHT22;21230;51.170;17.024;2023-04-24T05:45:34;13.70;99.90
35043;DHT22;21230;51.170;17.024;2023-04-24T05:48:02;13.80;99.90
35043;DHT22;21230;51.170;17.024;2023-04-24T05:50:28;13.80;99.90
35043;DHT22;21230;51.170;17.024;2023-04-24T05:52:53;13.90;99.90
35043;DHT22;21230;51.170;17.024;2023-04-24T05:55:20;14.00;99.90
35043;DHT22;21230;51.170;17.024;2023-04-24T05:57:46;14.00;99.90
35043;DHT22;21230;51.170;17.024;2023-04-24T06:00:13;14.10;99.90
35043;DHT22;21230;51.170;17.024;2023-04-24T06:02:39;14.20;99.90
35043;DHT22;21230;51.170;17.024;2023-04-24T06:05:05;14.30;99.90
35043;DHT22;21230;51.170;17.024;2023-04-24T06:07:31;14.40;99.90
35043;DHT22;21230;51.170;17.024;2023-04-24T06:09:57;14.50;99.90
35043;DHT22;21230;51.170;17.024;2023-04-24T06:12:23;14.60;99.90
35043;DHT22;21230;51.170;17.024;2023-04-24T06:14:48;14.70;99.90
35043;DHT22;21230;51.170;17.024;2023-04-24T06:17:15;14.70;99.90
35043;DHT22;21230;51.170;17.024;2023-04-24T06:19:41;14.80;99.90
35043;DHT22;21230;51.170;17.024;2023-04-24T06:22:07;14.80;99.90
35043;DHT22;21230;51.170;17.024;2023-04-24T06:24:34;14.80;99.90
35043;DHT22;21230;51.170;17.024;2023-04-24T06:27:00;14.80;99.90
35043;DHT22;21230;51.170;17.024;2023-04-24T06:29:27;14.80;99.90
35043;DHT22;21230;51.170;17.024;2023-04-24T06:31:53;14.90;99.90
35043;DHT22;21230;51.170;17.024;2023-04-24T06:34:19;14.90;99.90
35043;DHT22;21230;51.170;17.024;2023-04-24T06:36:47;14.90;99.90
35043;DHT22;21230;51.170;17.024;2023-04-24T06:39:12;14.90;99.90
35043;DHT22;21230;51.170;17.024;2023-04-24T06:41:38;14.90;99.90
35043;DHT22;21230;51.170;17.024;2023-04-24T06:44:05;15.00;99.90
35043;DHT22;21230;51.170;17.024;2023-04-24T06:46:31;15.00;99.90
35043;DHT22;21230;51.170;17.024;2023-04-24T06:48:57;15.00;99.90
35043;DHT22;21230;51.170;17.024;2023-04-24T06:51:23;15.10;99.90
35043;DHT22;21230;51.170;17.024;2023-04-24T06:53:50;15.00;99.90
35043;DHT22;21230;51.170;17.024;2023-04-24T06:56:17;15.10;99.90
35043;DHT22;21230;51.170;17.024;2023-04-24T06:58:43;15.20;99.90
35043;DHT22;21230;51.170;17.024;2023-04-24T07:01:09;15.20;99.90
35043;DHT22;21230;51.170;17.024;2023-04-24T07:03:35;15.30;99.90
35043;DHT22;21230;51.170;17.024;2023-04-24T07:06:02;15.30;99.90
35043;DHT22;21230;51.170;17.024;2023-04-24T07:08:29;15.30;99.90
35043;DHT22;21230;51.170;17.024;2023-04-24T07:10:59;15.40;99.90
35043;DHT22;21230;51.170;17.024;2023-04-24T07:13:26;15.50;99.90
35043;DHT22;21230;51.170;17.024;2023-04-24T07:16:01;15.60;99.90
35043;DHT22;21230;51.170;17.024;2023-04-24T07:18:27;15.70;99.90
35043;DHT22;21230;51.170;17.024;2023-04-24T07:20:53;15.70;99.90
35043;DHT22;21230;51.170;17.024;2023-04-24T07:23:20;15.80;99.90
35043;DHT22;21230;51.170;17.024;2023-04-24T07:25:45;15.80;99.90
35043;DHT22;21230;51.170;17.024;2023-04-24T07:28:12;15.90;99.90
35043;DHT22;21230;51.170;17.024;2023-04-24T07:30:38;15.90;99.90
35043;DHT22;21230;51.170;17.024;2023-04-24T07:33:04;15.90;99.90
35043;DHT22;21230;51.170;17.024;2023-04-24T07:35:39;15.90;99.90
35043;DHT22;21230;51.170;17.024;2023-04-24T07:38:05;16.00;99.90
35043;DHT22;21230;51.170;17.024;2023-04-24T07:40:31;16.00;99.90
35043;DHT22;21230;51.170;17.024;2023-04-24T07:43:00;16.00;99.90
35043;DHT22;21230;51.170;17.024;2023-04-24T07:45:27;15.80;99.90
35043;DHT22;21230;51.170;17.024;2023-04-24T07:48:03;15.80;99.90
35043;DHT22;21230;51.170;17.024;2023-04-24T07:50:31;15.70;99.90
35043;DHT22;21230;51.170;17.024;2023-04-24T07:53:00;15.60;99.90
35043;DHT22;21230;51.170;17.024;2023-04-24T07:55:26;15.80;99.90
35043;DHT22;21230;51.170;17.024;2023-04-24T07:57:53;15.90;99.90
35043;DHT22;21230;51.170;17.024;2023-04-24T08:00:20;15.80;99.90
35043;DHT22;21230;51.170;17.024;2023-04-24T08:02:52;15.80;99.90
35043;DHT22;21230;51.170;17.024;2023-04-24T08:05:18;15.80;99.90
35043;DHT22;21230;51.170;17.024;2023-04-24T08:07:45;16.00;99.90
35043;DHT22;21230;51.170;17.024;2023-04-24T08:10:15;16.00;99.90
35043;DHT22;21230;51.170;17.024;2023-04-24T08:12:41;16.10;99.90
35043;DHT22;21230;51.170;17.024;2023-04-24T08:15:08;16.10;99.90
35043;DHT22;21230;51.170;17.024;2023-04-24T08:17:37;16.10;99.90
35043;DHT22;21230;51.170;17.024;2023-04-24T08:20:08;16.10;99.90
35043;DHT22;21230;51.170;17.024;2023-04-24T08:22:39;16.00;99.90
35043;DHT22;21230;51.170;17.024;2023-04-24T08:25:06;16.10;99.90
35043;DHT22;21230;51.170;17.024;2023-04-24T08:27:34;16.20;99.90
35043;DHT22;21230;51.170;17.024;2023-04-24T08:30:04;16.30;99.90
35043;DHT22;21230;51.170;17.024;2023-04-24T08:32:30;16.40;99.90
35043;DHT22;21230;51.170;17.024;2023-04-24T08:34:57;16.40;99.90
35043;DHT22;21230;51.170;17.024;2023-04-24T08:37:23;16.50;99.90
35043;DHT22;21230;51.170;17.024;2023-04-24T08:39:50;16.50;99.90
35043;DHT22;21230;51.170;17.024;2023-04-24T08:42:18;16.60;99.90
35043;DHT22;21230;51.170;17.024;2023-04-24T08:44:44;16.50;99.90
35043;DHT22;21230;51.170;17.024;2023-04-24T08:47:11;16.40;99.90
35043;DHT22;21230;51.170;17.024;2023-04-24T08:49:38;16.40;99.90
35043;DHT22;21230;51.170;17.024;2023-04-24T08:52:09;16.30;99.90
35043;DHT22;21230;51.170;17.024;2023-04-24T08:54:36;16.10;99.90
35043;DHT22;21230;51.170;17.024;2023-04-24T08:57:03;16.10;99.90
35043;DHT22;21230;51.170;17.024;2023-04-24T08:59:33;16.10;99.90
35043;DHT22;21230;51.170;17.024;2023-04-24T09:02:03;16.20;99.90
35043;DHT22;21230;51.170;17.024;2023-04-24T09:04:30;16.30;99.90
35043;DHT22;21230;51.170;17.024;2023-04-24T09:06:58;16.30;99.90
35043;DHT22;21230;51.170;17.024;2023-04-24T09:09:24;16.30;99.90
35043;DHT22;21230;51.170;17.024;2023-04-24T09:11:53;16.30;99.90
35043;DHT22;21230;51.170;17.024;2023-04-24T09:14:21;16.40;99.90
35043;DHT22;21230;51.170;17.024;2023-04-24T09:16:48;16.30;99.90
35043;DHT22;21230;51.170;17.024;2023-04-24T09:19:18;16.10;99.90
35043;DHT22;21230;51.170;17.024;2023-04-24T09:21:46;16.20;99.90
35043;DHT22;21230;51.170;17.024;2023-04-24T09:24:17;16.30;99.90
35043;DHT22;21230;51.170;17.024;2023-04-24T09:26:47;16.20;99.90
35043;DHT22;21230;51.170;17.024;2023-04-24T09:29:18;16.40;99.90
35043;DHT22;21230;51.170;17.024;2023-04-24T09:31:45;16.70;99.90
35043;DHT22;21230;51.170;17.024;2023-04-24T09:34:12;17.00;99.90
35043;DHT22;21230;51.170;17.024;2023-04-24T09:36:47;17.00;99.90
35043;DHT22;21230;51.170;17.024;2023-04-24T09:39:17;17.10;99.90
35043;DHT22;21230;51.170;17.024;2023-04-24T09:41:58;17.10;99.90
35043;DHT22;21230;51.170;17.024;2023-04-24T09:44:28;16.90;99.90
35043;DHT22;21230;51.170;17.024;2023-04-24T09:46:57;16.90;99.90
35043;DHT22;21230;51.170;17.024;2023-04-24T09:49:32;17.00;99.90
35043;DHT22;21230;51.170;17.024;2023-04-24T09:52:09;17.10;99.90
35043;DHT22;21230;51.170;17.024;2023-04-24T09:54:36;17.20;99.90
35043;DHT22;21230;51.170;17.024;2023-04-24T09:57:02;17.40;99.90
35043;DHT22;21230;51.170;17.024;2023-04-24T09:59:28;17.40;99.90
35043;DHT22;21230;51.170;17.024;2023-04-24T10:01:55;17.50;99.90
35043;DHT22;21230;51.170;17.024;2023-04-24T10:04:23;17.60;99.90
35043;DHT22;21230;51.170;17.024;2023-04-24T10:06:53;17.60;99.90
35043;DHT22;21230;51.170;17.024;2023-04-24T10:09:21;17.60;99.90
35043;DHT22;21230;51.170;17.024;2023-04-24T10:11:50;17.60;99.90
35043;DHT22;21230;51.170;17.024;2023-04-24T10:14:18;17.60;99.90
35043;DHT22;21230;51.170;17.024;2023-04-24T10:16:47;17.60;99.90
35043;DHT22;21230;51.170;17.024;2023-04-24T10:19:15;17.50;99.90
35043;DHT22;21230;51.170;17.024;2023-04-24T10:21:44;17.40;99.90
35043;DHT22;21230;51.170;17.024;2023-04-24T10:24:16;17.30;99.90
35043;DHT22;21230;51.170;17.024;2023-04-24T10:26:43;17.20;99.90
35043;DHT22;21230;51.170;17.024;2023-04-24T10:29:11;17.20;99.90
35043;DHT22;21230;51.170;17.024;2023-04-24T10:31:40;17.10;99.90
35043;DHT22;21230;51.170;17.024;2023-04-24T10:34:08;17.10;99.90
35043;DHT22;21230;51.170;17.024;2023-04-24T10:36:36;17.00;99.90
35043;DHT22;21230;51.170;17.024;2023-04-24T10:39:09;17.00;99.90
35043;DHT22;21230;51.170;17.024;2023-04-24T10:41:39;17.00;99.90
35043;DHT22;21230;51.170;17.024;2023-04-24T10:44:13;16.90;99.90
35043;DHT22;21230;51.170;17.024;2023-04-24T10:46:44;16.90;99.90
35043;DHT22;21230;51.170;17.024;2023-04-24T10:49:10;17.00;99.90
35043;DHT22;21230;51.170;17.024;2023-04-24T10:51:50;17.10;99.90
35043;DHT22;21230;51.170;17.024;2023-04-24T11:00:09;17.50;99.90
35043;DHT22;21230;51.170;17.024;2023-04-24T11:02:39;17.60;99.90
35043;DHT22;21230;51.170;17.024;2023-04-24T11:05:09;17.70;99.90
35043;DHT22;21230;51.170;17.024;2023-04-24T11:08:14;17.60;99.90
35043;DHT22;21230;51.170;17.024;2023-04-24T11:10:46;17.60;99.90
35043;DHT22;21230;51.170;17.024;2023-04-24T11:13:16;17.60;99.90
35043;DHT22;21230;51.170;17.024;2023-04-24T11:15:42;17.40;99.90
35043;DHT22;21230;51.170;17.024;2023-04-24T11:18:15;17.10;99.90
35043;DHT22;21230;51.170;17.024;2023-04-24T11:20:45;17.10;99.90
35043;DHT22;21230;51.170;17.024;2023-04-24T11:23:12;17.20;99.90
35043;DHT22;21230;51.170;17.024;2023-04-24T11:25:39;17.20;99.90
35043;DHT22;21230;51.170;17.024;2023-04-24T11:28:05;17.10;99.90
35043;DHT22;21230;51.170;17.024;2023-04-24T11:30:32;17.20;99.90
35043;DHT22;21230;51.170;17.024;2023-04-24T11:33:03;17.30;99.90
35043;DHT22;21230;51.170;17.024;2023-04-24T11:35:35;17.40;99.90
35043;DHT22;21230;51.170;17.024;2023-04-24T11:38:09;17.40;99.90
35043;DHT22;21230;51.170;17.024;2023-04-24T11:40:38;17.50;99.90
35043;DHT22;21230;51.170;17.024;2023-04-24T11:43:07;17.60;99.90
35043;DHT22;21230;51.170;17.024;2023-04-24T11:45:34;17.50;99.90
35043;DHT22;21230;51.170;17.024;2023-04-24T11:48:03;17.30;99.90
35043;DHT22;21230;51.170;17.024;2023-04-24T11:50:28;17.50;99.90
35043;DHT22;21230;51.170;17.024;2023-04-24T11:52:55;17.50;99.90
35043;DHT22;21230;51.170;17.024;2023-04-24T11:57:55;17.90;99.90
35043;DHT22;21230;51.170;17.024;2023-04-24T12:00:25;18.20;99.90
35043;DHT22;21230;51.170;17.024;2023-04-24T12:03:12;18.20;99.90
35043;DHT22;21230;51.170;17.024;2023-04-24T12:05:40;17.90;99.90
35043;DHT22;21230;51.170;17.024;2023-04-24T12:08:07;17.80;99.40
35043;DHT22;21230;51.170;17.024;2023-04-24T12:10:34;17.80;99.40
35043;DHT22;21230;51.170;17.024;2023-04-24T12:13:00;17.60;99.90
35043;DHT22;21230;51.170;17.024;2023-04-24T12:15:26;17.60;99.90
35043;DHT22;21230;51.170;17.024;2023-04-24T12:17:54;17.70;99.90
35043;DHT22;21230;51.170;17.024;2023-04-24T12:20:31;17.90;99.90
35043;DHT22;21230;51.170;17.024;2023-04-24T12:22:58;17.70;99.90
35043;DHT22;21230;51.170;17.024;2023-04-24T12:25:27;17.40;99.90
35043;DHT22;21230;51.170;17.024;2023-04-24T12:28:10;17.30;99.90
35043;DHT22;21230;51.170;17.024;2023-04-24T12:30:47;17.10;99.90
35043;DHT22;21230;51.170;17.024;2023-04-24T12:33:21;16.70;99.90
35043;DHT22;21230;51.170;17.024;2023-04-24T12:35:51;16.60;99.90
35043;DHT22;21230;51.170;17.024;2023-04-24T12:38:22;16.50;99.90
35043;DHT22;21230;51.170;17.024;2023-04-24T12:41:05;16.40;99.90
35043;DHT22;21230;51.170;17.024;2023-04-24T12:43:31;16.30;99.90
35043;DHT22;21230;51.170;17.024;2023-04-24T12:45:57;16.00;99.90
35043;DHT22;21230;51.170;17.024;2023-04-24T12:48:25;15.90;99.90
35043;DHT22;21230;51.170;17.024;2023-04-24T12:50:51;15.80;99.90
35043;DHT22;21230;51.170;17.024;2023-04-24T12:53:17;15.70;99.90
35043;DHT22;21230;51.170;17.024;2023-04-24T12:55:43;15.50;99.90
35043;DHT22;21230;51.170;17.024;2023-04-24T12:58:10;15.40;99.90
35043;DHT22;21230;51.170;17.024;2023-04-24T13:00:36;15.20;99.90
35043;DHT22;21230;51.170;17.024;2023-04-24T13:03:04;15.00;99.90
35043;DHT22;21230;51.170;17.024;2023-04-24T13:05:30;14.90;99.90
35043;DHT22;21230;51.170;17.024;2023-04-24T13:07:56;14.70;99.90
35043;DHT22;21230;51.170;17.024;2023-04-24T13:10:30;14.60;99.90
35043;DHT22;21230;51.170;17.024;2023-04-24T13:13:05;14.50;99.90
35043;DHT22;21230;51.170;17.024;2023-04-24T13:15:34;14.40;99.90
35043;DHT22;21230;51.170;17.024;2023-04-24T13:18:03;14.50;99.90
35043;DHT22;21230;51.170;17.024;2023-04-24T13:20:29;14.40;99.90
35043;DHT22;21230;51.170;17.024;2023-04-24T13:22:55;14.40;99.90
35043;DHT22;21230;51.170;17.024;2023-04-24T13:25:24;14.30;99.90
35043;DHT22;21230;51.170;17.024;2023-04-24T13:27:50;14.30;99.90
35043;DHT22;21230;51.170;17.024;2023-04-24T13:30:16;14.20;99.90
35043;DHT22;21230;51.170;17.024;2023-04-24T13:32:42;14.10;99.90
35043;DHT22;21230;51.170;17.024;2023-04-24T13:35:08;13.90;99.90
35043;DHT22;21230;51.170;17.024;2023-04-24T13:37:34;13.90;99.90
35043;DHT22;21230;51.170;17.024;2023-04-24T13:40:03;13.90;99.90
35043;DHT22;21230;51.170;17.024;2023-04-24T13:42:31;13.90;99.90
35043;DHT22;21230;51.170;17.024;2023-04-24T13:44:57;13.80;99.90
35043;DHT22;21230;51.170;17.024;2023-04-24T13:47:24;13.70;99.90
35043;DHT22;21230;51.170;17.024;2023-04-24T13:49:51;13.60;99.90
35043;DHT22;21230;51.170;17.024;2023-04-24T13:52:19;13.60;99.90
35043;DHT22;21230;51.170;17.024;2023-04-24T13:54:54;13.50;99.90
35043;DHT22;21230;51.170;17.024;2023-04-24T13:57:21;13.50;99.90
35043;DHT22;21230;51.170;17.024;2023-04-24T13:59:47;13.50;99.90
35043;DHT22;21230;51.170;17.024;2023-04-24T14:02:13;13.50;99.90
35043;DHT22;21230;51.170;17.024;2023-04-24T14:04:39;13.50;99.90
35043;DHT22;21230;51.170;17.024;2023-04-24T14:07:05;13.50;99.90
35043;DHT22;21230;51.170;17.024;2023-04-24T14:09:31;13.50;99.90
35043;DHT22;21230;51.170;17.024;2023-04-24T14:11:57;13.60;99.90
35043;DHT22;21230;51.170;17.024;2023-04-24T14:14:26;13.60;99.90
35043;DHT22;21230;51.170;17.024;2023-04-24T14:17:03;13.70;99.90
35043;DHT22;21230;51.170;17.024;2023-04-24T14:19:32;13.70;99.90
35043;DHT22;21230;51.170;17.024;2023-04-24T14:21:59;13.80;99.90
35043;DHT22;21230;51.170;17.024;2023-04-24T14:24:26;13.80;99.90
35043;DHT22;21230;51.170;17.024;2023-04-24T14:26:51;13.80;99.90
35043;DHT22;21230;51.170;17.024;2023-04-24T14:29:18;13.70;99.90
35043;DHT22;21230;51.170;17.024;2023-04-24T14:31:53;13.60;99.90
35043;DHT22;21230;51.170;17.024;2023-04-24T14:34:19;13.60;99.90
35043;DHT22;21230;51.170;17.024;2023-04-24T14:36:45;13.50;99.90
35043;DHT22;21230;51.170;17.024;2023-04-24T14:39:11;13.50;99.90
35043;DHT22;21230;51.170;17.024;2023-04-24T14:41:40;13.50;99.90
35043;DHT22;21230;51.170;17.024;2023-04-24T14:44:06;13.50;99.90
35043;DHT22;21230;51.170;17.024;2023-04-24T14:46:32;13.50;99.90
35043;DHT22;21230;51.170;17.024;2023-04-24T14:48:58;13.30;99.90
35043;DHT22;21230;51.170;17.024;2023-04-24T14:51:24;13.30;99.90
35043;DHT22;21230;51.170;17.024;2023-04-24T14:53:54;13.30;99.90
35043;DHT22;21230;51.170;17.024;2023-04-24T14:56:22;13.30;99.90
35043;DHT22;21230;51.170;17.024;2023-04-24T14:58:53;13.30;99.90
35043;DHT22;21230;51.170;17.024;2023-04-24T15:01:25;13.30;99.90
35043;DHT22;21230;51.170;17.024;2023-04-24T15:03:53;13.30;99.90
35043;DHT22;21230;51.170;17.024;2023-04-24T15:06:19;13.30;99.90
35043;DHT22;21230;51.170;17.024;2023-04-24T15:08:51;13.30;99.90
35043;DHT22;21230;51.170;17.024;2023-04-24T15:11:17;13.30;99.90
35043;DHT22;21230;51.170;17.024;2023-04-24T15:13:43;13.20;99.90
35043;DHT22;21230;51.170;17.024;2023-04-24T15:16:12;13.20;99.90
35043;DHT22;21230;51.170;17.024;2023-04-24T15:18:38;13.20;99.90
35043;DHT22;21230;51.170;17.024;2023-04-24T15:21:04;13.10;99.90
35043;DHT22;21230;51.170;17.024;2023-04-24T15:23:30;13.00;99.90
35043;DHT22;21230;51.170;17.024;2023-04-24T15:25:56;13.00;99.90